Time;durP1;ratioP1;P1;durP2;ratioP2;P2;SDS_P1;SDS_P2;PMS_P1;PMS_P2;Temp;Humidity;BMP_temperature;BMP_pressure;BME280_temperature;BME280_humidity;BME280_pressure;Samples;Min_cycle;Max_cycle;Signal;HPM_P1;HPM_P2
2024/02/28 00:01:50;;;;;;;21.02;11.35;;;;;;;;;;5982423;24;20450;-70
2024/02/28 00:04:15;;;;;;;19.75;11.20;;;;;;;;;;5958165;24;20008;-71
2024/02/28 00:06:41;;;;;;;22.75;11.07;;;;;;;;;;5982951;24;20067;-71
2024/02/28 00:09:07;;;;;;;24.73;10.50;;;;;;;;;;5959099;24;20363;-70
2024/02/28 00:11:33;;;;;;;24.65;11.77;;;;;;;;;;5983357;24;20028;-71
2024/02/28 00:14:00;;;;;;;19.80;10.90;;;;;;;;;;5982423;24;20015;-71
2024/02/28 00:16:26;;;;;;;22.17;10.65;;;;;;;;;;5981762;24;20469;-72
2024/02/28 00:18:51;;;;;;;19.90;11.27;;;;;;;;;;5934480;24;20015;-70
2024/02/28 00:21:17;;;;;;;23.98;10.75;;;;;;;;;;5957828;24;20087;-69
2024/02/28 00:23:43;;;;;;;22.33;10.77;;;;;;;;;;5982769;24;20016;-70
2024/02/28 00:26:08;;;;;;;23.25;11.50;;;;;;;;;;5983180;24;20011;-71
2024/02/28 00:28:34;;;;;;;19.05;10.68;;;;;;;;;;5983568;24;20011;-71
2024/02/28 00:30:59;;;;;;;21.35;10.95;;;;;;;;;;5959078;24;20030;-70
2024/02/28 00:33:25;;;;;;;23.73;10.35;;;;;;;;;;5960077;24;20064;-73
2024/02/28 00:35:53;;;;;;;20.25;10.25;;;;;;;;;;5958383;24;20451;-70
2024/02/28 00:38:18;;;;;;;18.08;10.63;;;;;;;;;;5982900;24;20012;-71
2024/02/28 00:40:44;;;;;;;22.15;11.07;;;;;;;;;;5982565;24;20397;-70
2024/02/28 00:43:10;;;;;;;16.02;10.27;;;;;;;;;;5982947;24;20589;-70
2024/02/28 00:45:35;;;;;;;23.83;11.15;;;;;;;;;;5982988;24;20066;-71
2024/02/28 00:48:01;;;;;;;25.65;10.73;;;;;;;;;;5983232;24;20011;-70
2024/02/28 00:50:27;;;;;;;15.90;9.18;;;;;;;;;;5958808;24;20457;-71
2024/02/28 00:52:52;;;;;;;17.13;10.03;;;;;;;;;;5983064;24;20008;-72
2024/02/28 00:55:18;;;;;;;19.92;10.32;;;;;;;;;;5982401;23;20331;-70
2024/02/28 00:57:44;;;;;;;20.23;10.70;;;;;;;;;;5957656;24;20076;-73
2024/02/28 01:00:10;;;;;;;18.87;10.03;;;;;;;;;;5957520;24;20012;-71
2024/02/28 01:02:36;;;;;;;16.77;9.55;;;;;;;;;;5982575;24;20053;-71
2024/02/28 01:05:02;;;;;;;19.92;9.80;;;;;;;;;;5956487;24;20008;-70
2024/02/28 01:07:27;;;;;;;17.63;9.83;;;;;;;;;;5982156;24;20473;-71
2024/02/28 01:09:53;;;;;;;15.90;10.25;;;;;;;;;;5982505;24;20056;-69
2024/02/28 01:12:19;;;;;;;16.65;9.50;;;;;;;;;;5982529;24;20015;-70
2024/02/28 01:14:45;;;;;;;17.58;9.65;;;;;;;;;;5957936;24;20011;-71
2024/02/28 01:17:11;;;;;;;14.10;8.30;;;;;;;;;;5957054;24;20416;-71
2024/02/28 01:19:37;;;;;;;16.88;9.23;;;;;;;;;;5981640;24;20004;-71
2024/02/28 01:22:02;;;;;;;20.17;9.55;;;;;;;;;;5956825;24;20012;-70
2024/02/28 01:24:28;;;;;;;15.57;8.95;;;;;;;;;;5982257;24;20012;-71
2024/02/28 01:26:53;;;;;;;18.33;10.57;;;;;;;;;;5981635;24;20018;-71
2024/02/28 01:29:19;;;;;;;21.05;10.23;;;;;;;;;;5957074;24;20020;-70
2024/02/28 01:31:45;;;;;;;19.38;9.95;;;;;;;;;;5956790;24;20371;-71
2024/02/28 01:34:10;;;;;;;18.60;10.73;;;;;;;;;;5982504;24;20011;-70
2024/02/28 01:36:36;;;;;;;18.10;9.00;;;;;;;;;;5982128;24;20010;-71
2024/02/28 01:39:03;;;;;;;18.88;10.35;;;;;;;;;;5957062;24;20039;-71
2024/02/28 01:41:28;;;;;;;19.13;10.15;;;;;;;;;;5956997;24;20316;-70
2024/02/28 01:43:55;;;;;;;17.77;9.65;;;;;;;;;;5956881;24;20016;-71
2024/02/28 01:46:25;;;;;;;18.63;10.07;;;;;;;;;;5956253;24;20008;-70
2024/02/28 01:48:52;;;;;;;14.35;9.52;;;;;;;;;;5957084;24;20016;-72
2024/02/28 01:51:19;;;;;;;21.30;10.82;;;;;;;;;;5933768;24;20134;-71
2024/02/28 01:53:45;;;;;;;16.35;8.90;;;;;;;;;;5956045;24;20008;-71
2024/02/28 01:56:13;;;;;;;16.08;9.10;;;;;;;;;;5956687;24;20028;-70
2024/02/28 01:58:39;;;;;;;15.10;8.80;;;;;;;;;;5956875;24;20028;-70
2024/02/28 02:01:07;;;;;;;20.45;10.30;;;;;;;;;;5958188;24;20012;-70
2024/02/28 02:03:35;;;;;;;15.23;8.85;;;;;;;;;;5958662;24;20012;-70
2024/02/28 02:06:03;;;;;;;16.02;8.98;;;;;;;;;;5959477;24;20012;-69
2024/02/28 02:08:29;;;;;;;13.48;8.95;;;;;;;;;;5935558;24;20018;-71
2024/02/28 02:10:55;;;;;;;15.40;8.93;;;;;;;;;;5958144;24;20079;-71
2024/02/28 02:13:20;;;;;;;12.52;8.57;;;;;;;;;;5957146;24;20010;-71
2024/02/28 02:15:46;;;;;;;16.50;8.52;;;;;;;;;;5982622;24;20820;-70
2024/02/28 02:18:14;;;;;;;16.58;9.25;;;;;;;;;;5983167;24;20433;-70
2024/02/28 02:20:46;;;;;;;16.15;9.50;;;;;;;;;;5958078;24;20501;-69
2024/02/28 02:23:12;;;;;;;16.73;8.85;;;;;;;;;;5982634;24;20014;-71
2024/02/28 02:25:48;;;;;;;12.35;8.02;;;;;;;;;;5981876;24;20045;-71
2024/02/28 02:28:13;;;;;;;15.18;9.15;;;;;;;;;;5982352;24;20017;-71
2024/02/28 02:30:39;;;;;;;15.27;8.43;;;;;;;;;;5981543;24;20008;-70
2024/02/28 02:33:08;;;;;;;14.33;8.20;;;;;;;;;;5981218;24;20343;-70
2024/02/28 02:35:34;;;;;;;15.03;8.80;;;;;;;;;;5956314;24;20008;-70
2024/02/28 02:38:00;;;;;;;13.80;8.73;;;;;;;;;;5956889;24;20020;-70
2024/02/28 02:40:26;;;;;;;14.68;8.27;;;;;;;;;;5956807;24;20012;-70
2024/02/28 02:42:51;;;;;;;12.20;7.55;;;;;;;;;;5981821;24;20071;-69
2024/02/28 02:45:17;;;;;;;12.40;7.93;;;;;;;;;;5981402;24;20012;-70
2024/02/28 02:47:43;;;;;;;13.10;8.23;;;;;;;;;;5981987;24;20064;-71
2024/02/28 02:50:09;;;;;;;13.30;8.20;;;;;;;;;;5956964;24;20008;-70
2024/02/28 02:52:36;;;;;;;12.60;8.32;;;;;;;;;;5956202;24;20019;-70
2024/02/28 02:55:02;;;;;;;11.80;7.47;;;;;;;;;;5956293;23;20354;-70
2024/02/28 02:57:30;;;;;;;12.32;7.97;;;;;;;;;;5956069;24;20176;-70
2024/02/28 02:59:56;;;;;;;13.73;8.15;;;;;;;;;;5980922;24;20011;-70
2024/02/28 03:02:21;;;;;;;12.45;7.20;;;;;;;;;;5981248;24;20020;-71
2024/02/28 03:04:47;;;;;;;14.25;7.45;;;;;;;;;;5980503;24;20438;-70
2024/02/28 03:07:13;;;;;;;12.23;7.57;;;;;;;;;;5956700;24;20450;-70
2024/02/28 03:09:38;;;;;;;13.02;7.35;;;;;;;;;;5982699;24;20004;-69
2024/02/28 03:12:04;;;;;;;13.45;8.05;;;;;;;;;;5959063;24;20004;-69
2024/02/28 03:14:30;;;;;;;13.18;8.32;;;;;;;;;;5983115;24;20001;-70
2024/02/28 03:16:56;;;;;;;9.27;6.60;;;;;;;;;;5955789;24;20059;-70
2024/02/28 03:19:22;;;;;;;14.13;8.60;;;;;;;;;;5956154;24;20008;-70
2024/02/28 03:21:48;;;;;;;14.15;8.15;;;;;;;;;;5981055;24;20048;-70
2024/02/28 03:24:13;;;;;;;14.57;8.43;;;;;;;;;;5955952;24;20016;-71
2024/02/28 03:26:39;;;;;;;14.38;8.30;;;;;;;;;;5956201;24;20371;-71
2024/02/28 03:29:04;;;;;;;13.80;8.07;;;;;;;;;;5980103;24;20012;-71
2024/02/28 03:31:30;;;;;;;12.95;7.50;;;;;;;;;;5980392;24;20426;-71
2024/02/28 03:33:56;;;;;;;12.57;8.07;;;;;;;;;;5955929;24;20430;-69
2024/02/28 03:36:21;;;;;;;12.75;7.78;;;;;;;;;;5957390;24;20039;-71
2024/02/28 03:38:47;;;;;;;14.48;7.35;;;;;;;;;;5959777;24;20414;-71
2024/02/28 03:41:13;;;;;;;12.70;7.50;;;;;;;;;;5984410;24;20004;-71
2024/02/28 03:43:38;;;;;;;12.18;7.85;;;;;;;;;;5983902;24;20009;-71
2024/02/28 03:46:04;;;;;;;14.65;8.40;;;;;;;;;;5987484;24;20004;-70
2024/02/28 03:48:30;;;;;;;14.37;7.83;;;;;;;;;;5961750;24;20012;-70
2024/02/28 03:50:55;;;;;;;13.32;8.20;;;;;;;;;;5961224;24;20008;-71
2024/02/28 03:53:21;;;;;;;12.23;7.72;;;;;;;;;;5960956;24;20028;-70
2024/02/28 03:55:46;;;;;;;13.20;8.32;;;;;;;;;;5959219;23;20024;-71
2024/02/28 03:58:12;;;;;;;13.48;8.38;;;;;;;;;;5955483;24;20141;-70
2024/02/28 04:00:38;;;;;;;12.67;8.03;;;;;;;;;;5984464;24;20452;-69
2024/02/28 04:03:06;;;;;;;15.40;9.00;;;;;;;;;;5955530;24;20016;-70
2024/02/28 04:05:31;;;;;;;17.85;8.93;;;;;;;;;;5982085;24;20004;-70
2024/02/28 04:07:57;;;;;;;13.25;7.95;;;;;;;;;;5955940;24;20012;-71
2024/02/28 04:10:22;;;;;;;11.80;8.00;;;;;;;;;;5956028;24;20083;-70
2024/02/28 04:12:48;;;;;;;14.05;8.45;;;;;;;;;;5955500;24;20342;-71
2024/02/28 04:15:17;;;;;;;12.13;7.40;;;;;;;;;;5980041;24;20534;-70
2024/02/28 04:17:42;;;;;;;15.48;8.02;;;;;;;;;;5980783;24;20007;-71
2024/02/28 04:20:09;;;;;;;12.05;8.20;;;;;;;;;;5955664;24;20016;-70
2024/02/28 04:22:35;;;;;;;13.85;8.27;;;;;;;;;;5980800;24;20064;-71
2024/02/28 04:25:00;;;;;;;13.52;8.85;;;;;;;;;;5955320;24;20016;-70
2024/02/28 04:27:26;;;;;;;15.55;8.35;;;;;;;;;;5981891;24;20008;-71
2024/02/28 04:29:51;;;;;;;13.90;8.68;;;;;;;;;;5957288;24;20068;-71
2024/02/28 04:32:17;;;;;;;15.45;8.90;;;;;;;;;;5957292;24;20008;-70
2024/02/28 04:34:43;;;;;;;15.90;8.70;;;;;;;;;;5982007;24;20006;-70
2024/02/28 04:37:08;;;;;;;16.20;9.02;;;;;;;;;;5957268;24;20012;-71
2024/02/28 04:39:34;;;;;;;16.30;8.88;;;;;;;;;;5957337;24;20043;-71
2024/02/28 04:41:59;;;;;;;14.25;8.65;;;;;;;;;;5956915;24;20039;-70
2024/02/28 04:44:25;;;;;;;13.20;8.68;;;;;;;;;;5956622;24;20497;-70
2024/02/28 04:46:50;;;;;;;20.88;9.55;;;;;;;;;;5956757;24;20012;-69
2024/02/28 04:49:16;;;;;;;12.55;8.00;;;;;;;;;;5981408;23;20099;-71
2024/02/28 04:51:42;;;;;;;17.05;8.65;;;;;;;;;;5957102;24;20068;-70
2024/02/28 04:54:07;;;;;;;14.90;8.57;;;;;;;;;;5981693;23;20012;-72
2024/02/28 04:56:33;;;;;;;16.02;8.57;;;;;;;;;;5982312;24;20015;-70
2024/02/28 04:58:59;;;;;;;17.35;8.18;;;;;;;;;;5956492;24;20015;-71
2024/02/28 05:01:24;;;;;;;14.43;8.68;;;;;;;;;;5956404;24;20023;-70
2024/02/28 05:03:50;;;;;;;17.70;9.55;;;;;;;;;;5956970;24;20008;-72
2024/02/28 05:06:16;;;;;;;13.48;8.60;;;;;;;;;;5982116;24;20012;-70
2024/02/28 05:08:41;;;;;;;17.48;10.00;;;;;;;;;;5934532;24;20028;-73
2024/02/28 05:11:07;;;;;;;19.85;10.63;;;;;;;;;;5956682;24;20229;-70
2024/02/28 05:13:35;;;;;;;18.08;10.02;;;;;;;;;;5982890;24;20014;-70
2024/02/28 05:16:00;;;;;;;16.63;8.80;;;;;;;;;;5982087;24;20422;-69
2024/02/28 05:18:26;;;;;;;17.70;10.27;;;;;;;;;;5957324;24;20023;-69
2024/02/28 05:20:52;;;;;;;17.57;10.17;;;;;;;;;;5982216;24;20421;-69
2024/02/28 05:23:17;;;;;;;18.47;10.07;;;;;;;;;;5981440;24;20019;-72
2024/02/28 05:25:43;;;;;;;15.67;8.70;;;;;;;;;;5981466;24;20008;-71
2024/02/28 05:28:08;;;;;;;15.03;8.20;;;;;;;;;;5981528;24;20004;-71
2024/02/28 05:30:34;;;;;;;18.17;11.23;;;;;;;;;;5957028;24;20008;-71
2024/02/28 05:32:59;;;;;;;20.40;9.17;;;;;;;;;;5956196;24;20453;-70
2024/02/28 05:35:25;;;;;;;17.45;9.27;;;;;;;;;;5981689;24;20038;-70
2024/02/28 05:37:54;;;;;;;15.30;8.60;;;;;;;;;;5955857;24;20008;-69
2024/02/28 05:40:20;;;;;;;15.95;9.27;;;;;;;;;;5981182;24;20008;-69
2024/02/28 05:42:46;;;;;;;17.02;9.68;;;;;;;;;;5956731;24;20033;-69
2024/02/28 05:45:12;;;;;;;22.00;10.38;;;;;;;;;;5956016;24;20041;-69
2024/02/28 05:47:37;;;;;;;16.02;8.77;;;;;;;;;;5981319;24;20320;-70
2024/02/28 05:50:05;;;;;;;16.00;8.50;;;;;;;;;;5956716;24;20091;-70
2024/02/28 05:52:31;;;;;;;14.93;8.90;;;;;;;;;;5981312;24;20088;-70
2024/02/28 05:54:56;;;;;;;16.80;8.75;;;;;;;;;;5981297;23;20441;-69
2024/02/28 05:57:23;;;;;;;15.13;8.33;;;;;;;;;;5956323;24;20012;-69
2024/02/28 05:59:49;;;;;;;15.55;8.57;;;;;;;;;;5956238;24;20008;-69
2024/02/28 06:02:14;;;;;;;15.55;8.10;;;;;;;;;;5980515;24;20008;-70
2024/02/28 06:04:40;;;;;;;14.25;9.82;;;;;;;;;;5980852;24;20371;-70
2024/02/28 06:07:06;;;;;;;15.65;8.77;;;;;;;;;;5980223;24;20064;-71
2024/02/28 06:09:32;;;;;;;18.73;9.68;;;;;;;;;;5955743;24;20458;-69
2024/02/28 06:11:57;;;;;;;15.38;9.30;;;;;;;;;;5980499;24;20453;-69
2024/02/28 06:14:23;;;;;;;17.80;8.95;;;;;;;;;;5980697;24;20417;-69
2024/02/28 06:16:49;;;;;;;16.17;9.43;;;;;;;;;;5956229;24;20075;-69
2024/02/28 06:19:14;;;;;;;14.95;8.02;;;;;;;;;;5956444;24;20004;-70
2024/02/28 06:21:40;;;;;;;16.48;8.65;;;;;;;;;;5956032;24;20079;-71
2024/02/28 06:24:06;;;;;;;15.77;9.73;;;;;;;;;;5955370;24;20008;-70
2024/02/28 06:26:31;;;;;;;17.27;9.00;;;;;;;;;;5955299;24;20008;-70
2024/02/28 06:29:01;;;;;;;15.18;9.07;;;;;;;;;;5955705;24;20015;-70
2024/02/28 06:31:31;;;;;;;14.25;8.43;;;;;;;;;;5933087;24;20015;-69
2024/02/28 06:33:57;;;;;;;13.68;9.40;;;;;;;;;;5980463;24;20075;-72
2024/02/28 06:36:23;;;;;;;13.07;8.77;;;;;;;;;;5954841;24;20039;-71
2024/02/28 06:38:49;;;;;;;15.67;8.90;;;;;;;;;;5955571;24;20083;-69
2024/02/28 06:41:14;;;;;;;13.02;7.88;;;;;;;;;;5955539;24;20091;-70
2024/02/28 06:43:40;;;;;;;13.00;8.20;;;;;;;;;;5980292;24;20060;-70
2024/02/28 06:46:06;;;;;;;15.23;8.95;;;;;;;;;;5980755;24;20004;-70
2024/02/28 06:48:31;;;;;;;19.55;9.15;;;;;;;;;;5956726;24;20072;-70
2024/02/28 06:50:57;;;;;;;16.00;9.35;;;;;;;;;;5955018;24;20004;-71
2024/02/28 06:53:23;;;;;;;15.00;8.82;;;;;;;;;;5955545;24;20087;-70
2024/02/28 06:55:49;;;;;;;14.40;8.77;;;;;;;;;;5980624;23;20119;-71
2024/02/28 06:58:15;;;;;;;17.42;8.27;;;;;;;;;;5975201;24;20651;-69
2024/02/28 07:00:40;;;;;;;16.83;8.88;;;;;;;;;;5948343;24;20012;-71
2024/02/28 07:03:07;;;;;;;14.50;7.85;;;;;;;;;;5947712;24;20451;-70
2024/02/28 07:05:33;;;;;;;17.17;8.67;;;;;;;;;;5945683;24;20008;-69
2024/02/28 07:08:03;;;;;;;15.05;8.88;;;;;;;;;;5930233;24;20095;-71
2024/02/28 07:10:29;;;;;;;13.55;8.20;;;;;;;;;;5954517;24;20333;-72
2024/02/28 07:12:56;;;;;;;14.50;8.37;;;;;;;;;;5952920;24;20274;-71
2024/02/28 07:15:21;;;;;;;13.02;7.95;;;;;;;;;;5952855;24;20012;-71
2024/02/28 07:17:47;;;;;;;11.82;7.95;;;;;;;;;;5953146;24;20449;-69
2024/02/28 07:20:13;;;;;;;15.02;8.52;;;;;;;;;;5929757;24;20011;-68
2024/02/28 07:22:39;;;;;;;12.82;8.00;;;;;;;;;;5956829;24;20151;-72
2024/02/28 07:25:07;;;;;;;18.60;9.93;;;;;;;;;;5952829;24;20102;-70
2024/02/28 07:27:33;;;;;;;16.70;8.48;;;;;;;;;;5950427;24;20376;-70
2024/02/28 07:30:03;;;;;;;12.98;8.18;;;;;;;;;;5975399;24;20115;-70
2024/02/28 07:32:28;;;;;;;14.98;8.60;;;;;;;;;;5950118;24;20020;-70
2024/02/28 07:34:55;;;;;;;13.82;8.23;;;;;;;;;;5950095;24;20075;-72
2024/02/28 07:37:20;;;;;;;15.88;8.95;;;;;;;;;;5951333;24;20008;-71
2024/02/28 07:39:47;;;;;;;14.88;8.30;;;;;;;;;;5975312;24;20023;-70
2024/02/28 07:42:17;;;;;;;13.02;7.68;;;;;;;;;;5949503;24;20095;-72
2024/02/28 07:44:43;;;;;;;18.40;8.95;;;;;;;;;;5949683;24;20014;-72
2024/02/28 07:47:09;;;;;;;14.27;8.10;;;;;;;;;;5972530;24;20012;-73
2024/02/28 07:49:34;;;;;;;17.48;9.23;;;;;;;;;;5974024;23;20035;-72
2024/02/28 07:52:00;;;;;;;14.45;7.72;;;;;;;;;;5974047;24;20080;-72
2024/02/28 07:54:27;;;;;;;13.13;7.85;;;;;;;;;;5948431;23;20028;-70
2024/02/28 07:56:52;;;;;;;13.15;7.88;;;;;;;;;;5947916;24;20016;-70
2024/02/28 07:59:18;;;;;;;13.25;7.78;;;;;;;;;;5972643;24;20367;-70
2024/02/28 08:01:45;;;;;;;15.02;8.35;;;;;;;;;;5975017;24;20015;-70
2024/02/28 08:04:10;;;;;;;11.90;7.70;;;;;;;;;;5950365;24;20789;-70
2024/02/28 08:06:36;;;;;;;14.88;8.07;;;;;;;;;;5976355;24;20008;-70
2024/02/28 08:09:04;;;;;;;15.23;8.05;;;;;;;;;;5974904;24;20016;-69
2024/02/28 08:11:30;;;;;;;12.52;7.95;;;;;;;;;;5952262;24;20091;-71
2024/02/28 08:13:56;;;;;;;14.50;7.53;;;;;;;;;;5954079;24;20005;-70
2024/02/28 08:16:21;;;;;;;15.00;8.20;;;;;;;;;;5980691;24;20020;-70
2024/02/28 08:18:47;;;;;;;11.82;6.90;;;;;;;;;;5976827;24;20548;-70
2024/02/28 08:21:12;;;;;;;11.70;7.63;;;;;;;;;;5951129;24;20039;-70
2024/02/28 08:23:38;;;;;;;10.52;7.03;;;;;;;;;;5951752;24;20035;-70
2024/02/28 08:26:05;;;;;;;12.90;7.53;;;;;;;;;;5950220;24;20044;-70
2024/02/28 08:28:30;;;;;;;11.18;7.07;;;;;;;;;;5928270;24;20090;-71
2024/02/28 08:30:56;;;;;;;13.77;7.13;;;;;;;;;;5973430;24;20031;-70
2024/02/28 08:33:22;;;;;;;11.60;7.88;;;;;;;;;;5974210;24;20016;-70
2024/02/28 08:35:49;;;;;;;14.23;8.30;;;;;;;;;;5975854;24;20087;-70
2024/02/28 08:38:16;;;;;;;18.88;10.00;;;;;;;;;;5951155;24;20012;-72
2024/02/28 08:40:41;;;;;;;20.42;8.52;;;;;;;;;;5951571;24;20012;-72
2024/02/28 08:43:08;;;;;;;19.48;9.38;;;;;;;;;;5951507;24;20076;-72
2024/02/28 08:45:34;;;;;;;15.88;8.32;;;;;;;;;;5951596;24;20016;-69
2024/02/28 08:48:01;;;;;;;16.60;9.13;;;;;;;;;;5949634;23;20086;-70
2024/02/28 08:50:28;;;;;;;13.35;7.82;;;;;;;;;;5951711;24;20452;-72
2024/02/28 08:52:54;;;;;;;17.13;9.52;;;;;;;;;;5927223;24;20016;-72
2024/02/28 08:55:21;;;;;;;16.17;9.38;;;;;;;;;;5928954;24;20123;-71
2024/02/28 08:57:47;;;;;;;18.98;9.48;;;;;;;;;;5928298;24;20016;-71
2024/02/28 09:00:15;;;;;;;18.75;10.88;;;;;;;;;;5975537;24;20461;-70
2024/02/28 09:02:41;;;;;;;16.88;10.27;;;;;;;;;;5949263;24;20072;-69
2024/02/28 09:05:07;;;;;;;17.88;10.52;;;;;;;;;;5975715;24;20008;-71
2024/02/28 09:07:35;;;;;;;20.00;10.80;;;;;;;;;;5952212;24;20030;-72
2024/02/28 09:10:03;;;;;;;17.33;10.35;;;;;;;;;;5953571;24;20445;-71
2024/02/28 09:12:28;;;;;;;16.95;10.68;;;;;;;;;;5952789;24;20130;-70
2024/02/28 09:14:57;;;;;;;16.83;10.63;;;;;;;;;;5975001;24;20461;-72
2024/02/28 09:17:23;;;;;;;15.93;9.98;;;;;;;;;;5973919;24;20012;-71
2024/02/28 09:19:48;;;;;;;16.45;10.65;;;;;;;;;;5975230;24;20023;-71
2024/02/28 09:22:16;;;;;;;20.40;11.60;;;;;;;;;;5974953;24;20012;-71
2024/02/28 09:24:42;;;;;;;22.25;12.13;;;;;;;;;;5949541;24;20577;-71
2024/02/28 09:27:08;;;;;;;24.50;11.77;;;;;;;;;;5927163;24;20044;-71
2024/02/28 09:29:33;;;;;;;18.77;11.05;;;;;;;;;;5975441;24;20035;-70
2024/02/28 09:31:59;;;;;;;20.35;11.02;;;;;;;;;;5973520;24;20032;-71
2024/02/28 09:34:24;;;;;;;20.35;11.60;;;;;;;;;;5949323;24;20004;-70
2024/02/28 09:36:50;;;;;;;22.05;12.20;;;;;;;;;;5976386;24;20393;-70
2024/02/28 09:39:15;;;;;;;18.40;10.55;;;;;;;;;;5974292;24;20011;-71
2024/02/28 09:41:41;;;;;;;21.70;11.98;;;;;;;;;;5949670;24;20016;-70
2024/02/28 09:44:07;;;;;;;17.27;11.07;;;;;;;;;;5949161;24;20008;-69
2024/02/28 09:46:34;;;;;;;17.70;10.15;;;;;;;;;;5949645;24;20341;-71
2024/02/28 09:49:04;;;;;;;19.10;9.93;;;;;;;;;;5973661;24;20144;-72
2024/02/28 09:51:34;;;;;;;15.95;10.35;;;;;;;;;;5974446;23;20004;-72
2024/02/28 09:54:01;;;;;;;16.13;10.02;;;;;;;;;;5949369;24;20015;-71
2024/02/28 09:56:27;;;;;;;16.45;9.95;;;;;;;;;;5951099;23;20051;-71
2024/02/28 09:58:54;;;;;;;20.65;10.30;;;;;;;;;;5950942;24;20019;-69
2024/02/28 10:01:22;;;;;;;18.13;10.52;;;;;;;;;;5951896;24;20259;-71
2024/02/28 10:03:53;;;;;;;16.88;10.90;;;;;;;;;;5975789;24;20438;-71
2024/02/28 10:06:19;;;;;;;18.90;10.65;;;;;;;;;;5948377;24;20012;-71
2024/02/28 10:08:47;;;;;;;15.27;9.48;;;;;;;;;;5973909;24;20008;-71
2024/02/28 10:11:22;;;;;;;14.82;10.52;;;;;;;;;;5973705;24;20012;-70
2024/02/28 10:13:49;;;;;;;15.68;10.27;;;;;;;;;;5946796;24;20016;-71
2024/02/28 10:16:16;;;;;;;17.15;10.00;;;;;;;;;;5950416;24;20077;-71
2024/02/28 10:18:45;;;;;;;13.57;8.95;;;;;;;;;;5950797;24;20022;-72
2024/02/28 10:21:17;;;;;;;16.95;10.52;;;;;;;;;;5926348;24;20023;-72
2024/02/28 10:23:44;;;;;;;15.98;9.40;;;;;;;;;;5976997;24;20466;-71
2024/02/28 10:26:11;;;;;;;18.63;9.07;;;;;;;;;;5948820;24;20008;-70
2024/02/28 10:28:40;;;;;;;14.02;9.50;;;;;;;;;;5978906;24;20001;-70
2024/02/28 10:31:08;;;;;;;19.92;10.10;;;;;;;;;;5951480;24;20004;-71
2024/02/28 10:33:35;;;;;;;14.68;9.43;;;;;;;;;;5952747;24;20023;-70
2024/02/28 10:36:04;;;;;;;13.70;8.27;;;;;;;;;;5976931;24;20008;-72
2024/02/28 10:38:33;;;;;;;12.18;8.20;;;;;;;;;;5976729;24;20079;-71
2024/02/28 10:41:02;;;;;;;13.73;8.32;;;;;;;;;;5953484;24;20035;-71
2024/02/28 10:43:30;;;;;;;14.73;8.05;;;;;;;;;;5952595;24;20497;-71
2024/02/28 10:45:58;;;;;;;14.02;8.48;;;;;;;;;;5974042;24;20012;-73
2024/02/28 10:48:25;;;;;;;12.57;7.97;;;;;;;;;;5949879;24;20080;-73
2024/02/28 10:50:51;;;;;;;13.20;8.20;;;;;;;;;;5976871;23;20012;-71
2024/02/28 10:53:21;;;;;;;15.75;8.60;;;;;;;;;;5949760;24;20011;-72
2024/02/28 10:55:49;;;;;;;19.75;8.55;;;;;;;;;;5966063;23;20031;-72
2024/02/28 10:58:15;;;;;;;14.75;8.50;;;;;;;;;;5948317;24;20016;-71
2024/02/28 11:00:46;;;;;;;13.18;8.02;;;;;;;;;;5951094;24;20043;-71
2024/02/28 11:03:15;;;;;;;13.00;8.98;;;;;;;;;;5952128;24;20019;-70
2024/02/28 11:05:42;;;;;;;14.02;8.68;;;;;;;;;;5976547;24;20004;-70
2024/02/28 11:08:24;;;;;;;15.25;10.98;;;;;;;;;;5954419;24;20014;-71
2024/02/28 11:11:03;;;;;;;17.27;10.30;;;;;;;;;;5981055;24;20079;-70
2024/02/28 11:13:32;;;;;;;16.33;11.25;;;;;;;;;;5977672;24;20012;-72
2024/02/28 11:16:10;;;;;;;19.02;11.48;;;;;;;;;;5951293;24;20047;-70
2024/02/28 11:18:47;;;;;;;16.63;10.40;;;;;;;;;;5977682;24;20008;-71
2024/02/28 11:21:16;;;;;;;14.52;10.07;;;;;;;;;;5979010;24;20004;-73
2024/02/28 11:23:47;;;;;;;16.42;10.88;;;;;;;;;;5977607;24;20026;-71
2024/02/28 11:26:13;;;;;;;21.30;10.20;;;;;;;;;;5976586;24;20027;-70
2024/02/28 11:28:41;;;;;;;14.65;8.80;;;;;;;;;;5980332;24;20657;-70
2024/02/28 11:31:08;;;;;;;13.57;8.52;;;;;;;;;;5957889;24;20038;-69
2024/02/28 11:33:33;;;;;;;13.38;9.20;;;;;;;;;;5955746;24;20022;-70
2024/02/28 11:36:05;;;;;;;;;;;;;;;;;;5981163;24;20028;-71
2024/02/28 11:38:37;;;;;;;13.88;8.07;;;;;;;;;;5981205;24;20351;-70
2024/02/28 11:41:04;;;;;;;15.02;10.02;;;;;;;;;;5951142;24;20383;-70
2024/02/28 11:43:34;;;;;;;18.15;9.60;;;;;;;;;;5950631;24;20028;-71
2024/02/28 11:46:00;;;;;;;14.07;8.68;;;;;;;;;;5948771;24;20012;-71
2024/02/28 11:48:29;;;;;;;14.55;8.15;;;;;;;;;;5974025;24;20008;-72
2024/02/28 11:50:58;;;;;;;12.15;8.18;;;;;;;;;;5947217;24;20015;-74
2024/02/28 11:53:28;;;;;;;13.70;8.35;;;;;;;;;;5945941;24;20008;-73
2024/02/28 11:55:55;;;;;;;13.30;8.77;;;;;;;;;;5969929;23;20054;-71
2024/02/28 11:58:22;;;;;;;12.20;8.65;;;;;;;;;;5970689;24;20023;-71
2024/02/28 12:00:51;;;;;;;15.15;8.85;;;;;;;;;;5923247;24;20127;-72
2024/02/28 12:03:24;;;;;;;15.90;8.65;;;;;;;;;;5973438;24;20004;-72
2024/02/28 12:05:50;;;;;;;15.00;9.43;;;;;;;;;;5924047;24;20020;-71
2024/02/28 12:08:19;;;;;;;15.05;8.85;;;;;;;;;;5948475;24;20079;-71
2024/02/28 12:10:47;;;;;;;14.55;8.82;;;;;;;;;;5967254;24;20124;-71
2024/02/28 12:13:23;;;;;;;14.63;9.05;;;;;;;;;;5947227;24;20012;-72
2024/02/28 12:15:49;;;;;;;14.60;9.13;;;;;;;;;;5951161;24;20046;-71
2024/02/28 12:18:15;;;;;;;18.08;9.20;;;;;;;;;;5950112;24;20350;-72
2024/02/28 12:20:41;;;;;;;13.30;9.45;;;;;;;;;;5946573;24;20084;-71
2024/02/28 12:23:08;;;;;;;15.45;9.10;;;;;;;;;;5974442;24;20016;-72
2024/02/28 12:25:34;;;;;;;25.08;10.40;;;;;;;;;;5975918;24;20010;-70
2024/02/28 12:28:01;;;;;;;12.95;8.38;;;;;;;;;;5975593;24;20008;-72
2024/02/28 12:30:27;;;;;;;15.43;8.75;;;;;;;;;;5977216;24;20172;-72
2024/02/28 12:32:53;;;;;;;17.42;10.10;;;;;;;;;;5950753;24;20038;-71
2024/02/28 12:35:20;;;;;;;14.18;9.57;;;;;;;;;;5927651;24;20466;-71
2024/02/28 12:37:45;;;;;;;13.65;9.93;;;;;;;;;;5948780;24;20017;-71
2024/02/28 12:40:11;;;;;;;17.30;11.00;;;;;;;;;;5950208;24;20087;-70
2024/02/28 12:42:38;;;;;;;14.98;10.60;;;;;;;;;;5950758;24;20008;-71
2024/02/28 12:45:05;;;;;;;14.85;9.23;;;;;;;;;;5947136;24;20091;-71
2024/02/28 12:47:31;;;;;;;17.65;9.40;;;;;;;;;;5973504;24;20500;-71
2024/02/28 12:49:57;;;;;;;27.02;11.02;;;;;;;;;;5975868;23;20423;-72
2024/02/28 12:52:23;;;;;;;20.02;10.32;;;;;;;;;;5952002;24;20049;-72
2024/02/28 12:54:48;;;;;;;15.13;10.50;;;;;;;;;;5976740;23;20450;-72
2024/02/28 12:57:16;;;;;;;16.80;9.93;;;;;;;;;;5952615;24;20299;-70
2024/02/28 12:59:43;;;;;;;18.77;11.82;;;;;;;;;;5951769;24;20019;-72
2024/02/28 13:02:10;;;;;;;19.33;11.70;;;;;;;;;;5976513;24;20012;-71
2024/02/28 13:04:37;;;;;;;21.25;10.80;;;;;;;;;;5978299;24;20008;-72
2024/02/28 13:07:02;;;;;;;17.00;10.43;;;;;;;;;;5952197;24;20103;-71
2024/02/28 13:09:28;;;;;;;18.77;10.85;;;;;;;;;;5950836;24;20403;-72
2024/02/28 13:11:54;;;;;;;19.65;11.98;;;;;;;;;;5924876;24;20084;-72
2024/02/28 13:14:19;;;;;;;19.02;11.95;;;;;;;;;;5971500;24;20004;-72
2024/02/28 13:16:45;;;;;;;18.92;11.75;;;;;;;;;;5974947;24;20012;-70
2024/02/28 13:19:11;;;;;;;17.98;11.27;;;;;;;;;;5973578;24;20014;-70
2024/02/28 13:21:37;;;;;;;17.73;12.52;;;;;;;;;;5948715;24;20008;-71
2024/02/28 13:24:03;;;;;;;19.48;11.65;;;;;;;;;;5947774;24;20711;-70
2024/02/28 13:26:29;;;;;;;17.48;11.20;;;;;;;;;;5948851;24;20192;-71
2024/02/28 13:28:55;;;;;;;18.67;12.52;;;;;;;;;;5950870;24;20054;-70
2024/02/28 13:31:21;;;;;;;18.50;12.18;;;;;;;;;;5949633;24;20718;-71
2024/02/28 13:33:48;;;;;;;24.95;12.80;;;;;;;;;;5973401;24;20000;-69
2024/02/28 13:36:16;;;;;;;27.23;16.00;;;;;;;;;;5949611;24;20122;-71
2024/02/28 13:38:42;;;;;;;22.92;13.07;;;;;;;;;;5949000;24;20016;-70
2024/02/28 13:41:07;;;;;;;21.58;12.75;;;;;;;;;;5949002;24;20154;-70
2024/02/28 13:43:33;;;;;;;21.02;12.00;;;;;;;;;;5973747;24;20008;-69
2024/02/28 13:46:01;;;;;;;20.35;12.90;;;;;;;;;;5949985;24;20027;-72
2024/02/28 13:48:33;;;;;;;18.73;11.27;;;;;;;;;;5974751;24;20008;-74
2024/02/28 13:50:59;;;;;;;17.73;12.23;;;;;;;;;;5950742;24;20464;-70
2024/02/28 13:53:27;;;;;;;22.95;12.05;;;;;;;;;;5947673;24;20099;-70
2024/02/28 13:55:55;;;;;;;20.55;12.55;;;;;;;;;;5948114;24;20038;-70
2024/02/28 13:58:20;;;;;;;20.13;12.40;;;;;;;;;;5976590;24;20079;-70
2024/02/28 14:00:46;;;;;;;22.20;12.80;;;;;;;;;;5929216;24;20064;-70
2024/02/28 14:03:13;;;;;;;28.45;23.13;;;;;;;;;;5953325;24;20071;-70
2024/02/28 14:05:39;;;;;;;21.30;13.60;;;;;;;;;;5976634;24;20016;-71
2024/02/28 14:08:07;;;;;;;21.08;12.85;;;;;;;;;;5949147;24;20037;-73
2024/02/28 14:10:32;;;;;;;21.05;13.52;;;;;;;;;;5949787;24;20039;-70
2024/02/28 14:12:58;;;;;;;26.92;13.02;;;;;;;;;;5974744;24;20068;-71
2024/02/28 14:15:25;;;;;;;24.98;14.27;;;;;;;;;;5949848;24;20426;-71
2024/02/28 14:17:51;;;;;;;22.20;13.23;;;;;;;;;;5949691;24;20430;-70
2024/02/28 14:20:17;;;;;;;22.42;13.93;;;;;;;;;;5969181;24;20008;-71
2024/02/28 14:22:43;;;;;;;30.42;15.50;;;;;;;;;;5972521;24;20012;-70